Time;durP1;ratioP1;P1;durP2;ratioP2;P2;SDS_P1;SDS_P2;PMS_P1;PMS_P2;Temp;Humidity;BMP_temperature;BMP_pressure;BME280_temperature;BME280_humidity;BME280_pressure;Samples;Min_cycle;Max_cycle;Signal;HPM_P1;HPM_P2
2022/08/12 00:43:29;;;;;;;4.40;2.10;;;;;;;17.65;72.32;101201.95;84677;1329;26466;-73
2022/08/12 00:48:00;;;;;;;4.30;2.00;;;;;;;17.59;73.35;101204.77;84651;1330;22616;-71
2022/08/12 00:50:17;;;;;;;3.00;2.30;;;;;;;17.56;73.57;101205.98;84645;1329;22773;-73
2022/08/12 00:52:26;;;;;;;6.30;2.50;;;;;;;17.54;73.79;101205.05;84620;1333;24298;-74
2022/08/12 00:54:36;;;;;;;2.80;2.50;;;;;;;17.50;73.82;101204.16;84628;1329;22589;-71
2022/08/12 00:56:45;;;;;;;4.40;3.00;;;;;;;17.49;74.02;101205.45;84535;1335;22612;-72
2022/08/12 00:58:54;;;;;;;3.60;2.50;;;;;;;17.48;74.15;101202.01;84640;1330;22608;-73
2022/08/12 01:01:04;;;;;;;7.00;2.90;;;;;;;17.47;74.17;101201.72;84635;1329;25288;-73
2022/08/12 01:03:18;;;;;;;3.80;3.00;;;;;;;17.45;73.85;101199.67;84662;1329;25443;-73
2022/08/12 01:12:47;;;;;;;5.20;3.40;;;;;;;17.37;73.45;101200.48;84644;1329;22596;-74
2022/08/12 01:14:56;;;;;;;5.90;3.90;;;;;;;17.32;73.34;101199.52;84634;1329;22627;-73
2022/08/12 01:17:05;;;;;;;8.50;3.90;;;;;;;17.27;73.28;101197.81;84640;1325;22622;-74
2022/08/12 01:19:14;;;;;;;6.10;4.70;;;;;;;17.23;73.24;101196.45;84684;1333;25300;-74
2022/08/12 01:21:44;;;;;;;5.80;3.90;;;;;;;17.18;73.36;101195.63;84587;1332;22713;-74
2022/08/12 01:24:05;;;;;;;7.00;4.20;;;;;;;17.16;73.47;101195.23;84697;1331;22736;-72
2022/08/12 01:26:18;;;;;;;6.60;3.80;;;;;;;17.13;73.44;101198.02;84536;1333;22683;-73
2022/08/12 01:28:28;;;;;;;9.60;4.80;;;;;;;17.10;73.50;101204.36;84631;1322;22704;-72
2022/08/12 01:30:37;;;;;;;5.30;4.50;;;;;;;17.08;73.67;101203.05;84670;1329;22631;-72
2022/08/12 01:32:48;;;;;;;7.00;4.90;;;;;;;17.08;73.81;101200.60;84681;1333;22587;-74
2022/08/12 01:35:04;;;;;;;8.70;4.70;;;;;;;17.07;73.91;101197.99;84603;1335;22593;-74
2022/08/12 01:37:13;;;;;;;8.60;5.00;;;;;;;17.07;73.81;101196.98;84603;1334;22950;-73
2022/08/12 01:39:22;;;;;;;10.90;5.60;;;;;;;17.09;73.74;101197.18;84601;1330;22602;-74
2022/08/12 01:41:32;;;;;;;9.90;5.80;;;;;;;17.12;73.41;101203.54;84639;1329;22663;-74
2022/08/12 01:43:41;;;;;;;15.50;7.10;;;;;;;17.16;72.91;101199.84;84599;1333;22588;-73
2022/08/12 01:45:58;;;;;;;12.50;6.30;;;;;;;17.20;72.80;101193.98;84624;1329;22590;-72
2022/08/12 01:48:13;;;;;;;10.50;7.20;;;;;;;17.23;72.60;101192.73;84671;1329;23929;-73
2022/08/12 01:50:35;;;;;;;14.50;7.00;;;;;;;17.27;72.34;101192.70;84616;1333;22603;-75
2022/08/12 01:52:55;;;;;;;18.30;7.80;;;;;;;17.31;72.01;101192.48;84617;1330;22626;-74
2022/08/12 01:55:24;;;;;;;20.80;8.40;;;;;;;17.36;71.79;101194.52;84632;1329;22610;-74
2022/08/12 01:57:40;;;;;;;15.20;6.80;;;;;;;17.40;71.67;101195.21;84644;1330;22596;-74
2022/08/12 01:59:58;;;;;;;12.10;6.50;;;;;;;17.44;71.50;101187.77;84620;1330;22849;-73
2022/08/12 02:02:10;;;;;;;9.40;5.10;;;;;;;17.47;71.33;101178.73;84624;1330;22666;-72
2022/08/12 02:12:00;;;;;;;6.70;3.40;;;;;;;17.56;70.60;101156.27;84604;1333;22584;-74
2022/08/12 02:14:37;;;;;;;4.30;3.20;;;;;;;17.57;70.28;101163.73;84614;1334;24286;-74
2022/08/12 02:17:22;;;;;;;7.10;2.90;;;;;;;17.59;70.23;101167.37;84627;1329;22587;-71
2022/08/12 02:19:56;;;;;;;4.60;3.20;;;;;;;17.60;70.13;101164.31;84649;1332;22688;-74
2022/08/12 02:22:18;;;;;;;6.90;3.30;;;;;;;17.63;69.90;101162.73;84629;1333;22721;-75
2022/08/12 02:24:30;;;;;;;9.20;3.40;;;;;;;17.66;69.78;101169.07;84619;1335;22689;-73
2022/08/12 02:26:40;;;;;;;8.30;4.80;;;;;;;17.70;69.59;101163.38;84651;1330;22629;-74
2022/08/12 02:28:50;;;;;;;10.50;6.50;;;;;;;17.74;69.45;101164.45;84599;1332;26566;-74
2022/08/12 02:31:02;;;;;;;16.30;6.30;;;;;;;17.77;69.44;101166.02;84650;1333;24343;-73
2022/08/12 02:33:10;;;;;;;24.40;8.40;;;;;;;17.80;69.30;101165.02;84617;1329;22617;-73
2022/08/12 02:35:21;;;;;;;29.80;12.50;;;;;;;17.81;69.26;101155.95;84616;1330;23963;-73
2022/08/12 02:37:30;;;;;;;27.00;11.90;;;;;;;17.83;69.05;101149.11;84656;1333;25263;-73
2022/08/12 02:39:39;;;;;;;36.20;12.10;;;;;;;17.85;68.92;101138.40;84617;1333;25444;-74
2022/08/12 02:41:49;;;;;;;33.30;10.20;;;;;;;17.87;68.79;101137.61;84600;1333;23883;-74
2022/08/12 02:44:04;;;;;;;40.80;9.10;;;;;;;17.88;68.62;101132.45;84627;1329;22654;-73
2022/08/12 02:46:14;;;;;;;37.90;10.10;;;;;;;17.89;68.63;101138.22;84615;1330;24770;-74
2022/08/12 02:48:26;;;;;;;41.90;7.70;;;;;;;17.89;68.66;101144.38;84638;1325;22860;-74
2022/08/12 02:50:45;;;;;;;29.90;7.40;;;;;;;17.91;68.60;101149.56;84615;1329;22586;-74
2022/08/12 02:52:54;;;;;;;23.80;5.50;;;;;;;17.92;68.60;101154.24;84643;1329;22626;-73
2022/08/12 02:55:18;;;;;;;18.20;4.70;;;;;;;17.94;68.52;101156.11;84645;1330;22592;-74
2022/08/12 02:57:26;;;;;;;12.20;4.90;;;;;;;17.95;68.51;101162.59;84624;1330;22840;-73
2022/08/12 02:59:35;;;;;;;10.40;4.80;;;;;;;17.97;68.50;101168.98;84568;1325;22616;-74
2022/08/12 03:01:49;;;;;;;15.50;5.10;;;;;;;17.99;68.35;101170.13;84677;1329;22584;-74
2022/08/12 03:03:58;;;;;;;7.80;4.90;;;;;;;18.00;68.45;101166.84;84715;1329;22672;-74
2022/08/12 03:06:09;;;;;;;6.70;3.90;;;;;;;18.02;68.52;101163.75;84625;1333;24395;-75
2022/08/12 03:08:21;;;;;;;9.20;4.10;;;;;;;18.03;68.42;101166.19;84655;1330;25309;-74
2022/08/12 03:10:30;;;;;;;6.70;3.10;;;;;;;18.03;68.39;101161.23;84706;1327;22610;-73
2022/08/12 03:12:41;;;;;;;6.20;3.30;;;;;;;18.04;68.29;101150.61;84604;1334;22577;-73
2022/08/12 03:14:51;;;;;;;5.00;2.60;;;;;;;18.04;68.34;101150.21;84664;1333;22616;-72
2022/08/12 03:17:08;;;;;;;16.50;3.30;;;;;;;18.06;68.26;101143.06;84677;1329;22594;-74
2022/08/12 03:19:18;;;;;;;8.80;3.70;;;;;;;18.07;68.29;101140.88;84663;1329;25264;-73
2022/08/12 03:21:27;;;;;;;12.10;4.20;;;;;;;18.08;68.51;101150.54;84609;1329;23871;-73
2022/08/12 03:23:36;;;;;;;10.30;3.90;;;;;;;18.08;68.47;101160.40;84652;1325;22803;-74
2022/08/12 03:25:45;;;;;;;11.00;4.40;;;;;;;18.10;68.49;101175.52;84644;1330;22596;-73
2022/08/12 03:27:57;;;;;;;15.90;6.10;;;;;;;18.11;68.45;101177.00;84643;1331;23270;-72
2022/08/12 03:30:10;;;;;;;11.20;5.70;;;;;;;18.13;68.35;101169.17;84643;1329;22845;-73
2022/08/12 03:32:22;;;;;;;15.20;6.40;;;;;;;18.13;68.21;101166.48;84646;1333;22591;-74
2022/08/12 03:34:34;;;;;;;20.10;5.70;;;;;;;18.14;68.04;101166.44;84619;1330;22592;-73
2022/08/12 03:36:45;;;;;;;26.80;5.20;;;;;;;18.16;68.05;101159.11;84619;1329;22661;-74
2022/08/12 03:39:19;;;;;;;25.10;5.70;;;;;;;18.16;67.91;101163.83;84626;1330;25462;-73
2022/08/12 03:41:34;;;;;;;24.10;5.80;;;;;;;18.17;67.86;101175.45;84580;1335;22705;-74
2022/08/12 04:01:00;;;;;;;15.90;4.00;;;;;;;18.15;68.05;101192.90;84590;1331;22589;-73
2022/08/12 04:03:50;;;;;;;13.00;5.00;;;;;;;18.15;68.19;101195.88;84605;1330;22538;-73
2022/08/12 04:05:39;;;;;;;11.50;5.70;;;;;;;18.15;68.29;101196.79;84582;1335;22728;-73
2022/08/12 04:07:48;;;;;;;8.70;5.00;;;;;;;18.15;68.18;101199.42;84596;1335;22588;-74
2022/08/12 04:09:57;;;;;;;9.20;4.20;;;;;;;18.16;68.05;101204.13;84584;1335;22629;-73
2022/08/12 04:14:34;;;;;;;3.50;2.80;;;;;;;18.21;68.02;101211.05;84599;1334;22586;-75
2022/08/12 04:16:43;;;;;;;6.70;2.60;;;;;;;18.23;67.87;101207.80;84574;1334;22622;-74
2022/08/12 04:18:52;;;;;;;8.10;3.40;;;;;;;18.24;67.82;101201.74;84614;1330;22713;-73
2022/08/12 04:21:01;;;;;;;4.30;3.10;;;;;;;18.25;67.78;101201.35;84594;1335;25322;-74
2022/08/12 04:23:12;;;;;;;4.80;2.50;;;;;;;18.25;67.77;101197.98;84276;1330;481030;-74
2022/08/12 04:25:20;;;;;;;8.40;2.50;;;;;;;18.25;67.84;101195.96;84641;1330;23079;-73
2022/08/12 04:27:30;;;;;;;9.60;2.40;;;;;;;18.26;67.69;101198.04;84556;1335;22612;-73
2022/08/12 04:29:39;;;;;;;11.00;3.40;;;;;;;18.27;67.63;101203.32;84675;1329;22586;-74
2022/08/12 04:31:48;;;;;;;7.20;3.30;;;;;;;18.28;67.63;101204.64;84652;1335;22722;-73
2022/08/12 04:33:57;;;;;;;5.10;2.60;;;;;;;18.30;67.59;101202.23;84656;1330;24010;-73
2022/08/12 04:36:06;;;;;;;5.00;2.50;;;;;;;18.32;67.62;101203.22;84681;1334;25003;-74
2022/08/12 04:38:14;;;;;;;7.20;2.70;;;;;;;18.34;67.56;101202.95;84664;1327;22591;-73
2022/08/12 04:40:24;;;;;;;5.30;2.90;;;;;;;18.39;67.66;101197.71;84611;1330;22621;-74
2022/08/12 04:42:32;;;;;;;11.60;3.10;;;;;;;18.46;67.57;101199.39;84578;1334;22626;-73
2022/08/12 04:44:43;;;;;;;2.80;2.40;;;;;;;18.54;67.46;101203.36;84604;1334;22590;-72
2022/08/12 04:46:52;;;;;;;7.90;2.30;;;;;;;18.58;67.36;101204.92;84598;1335;26636;-71
2022/08/12 04:49:02;;;;;;;8.60;2.40;;;;;;;18.60;67.30;101207.62;84599;1334;25514;-74
2022/08/12 04:51:10;;;;;;;3.70;2.60;;;;;;;18.62;67.34;101206.59;84629;1331;22593;-74
2022/08/12 04:53:20;;;;;;;5.80;2.10;;;;;;;18.65;67.19;101208.89;84570;1334;24003;-75
2022/08/12 04:55:29;;;;;;;5.90;2.20;;;;;;;18.67;67.09;101207.02;84620;1330;23909;-74
2022/08/12 04:57:38;;;;;;;3.70;2.20;;;;;;;18.70;67.19;101208.44;84603;1333;22716;-74
2022/08/12 04:59:47;;;;;;;5.10;2.10;;;;;;;18.77;67.16;101201.67;84641;1325;22591;-74
2022/08/12 05:01:56;;;;;;;7.30;2.80;;;;;;;18.87;67.22;101197.38;84639;1332;22567;-74
2022/08/12 05:04:05;;;;;;;4.80;2.70;;;;;;;19.00;67.39;101197.86;84646;1331;22612;-74
2022/08/12 05:06:13;;;;;;;5.70;2.60;;;;;;;19.15;67.27;101198.02;84637;1330;26506;-73
2022/08/12 05:08:22;;;;;;;6.50;2.60;;;;;;;19.30;67.20;101194.79;84622;1330;22611;-73
2022/08/12 05:10:33;;;;;;;10.50;3.30;;;;;;;19.43;66.61;101203.53;84686;1329;22904;-73
2022/08/12 05:12:51;;;;;;;9.60;2.80;;;;;;;19.64;66.38;101207.59;84573;1331;22626;-73
2022/08/12 05:15:00;;;;;;;10.10;3.90;;;;;;;19.80;66.08;101202.32;84597;1327;22928;-73
2022/08/12 05:17:11;;;;;;;4.40;2.90;;;;;;;19.94;65.52;101202.33;84638;1331;26072;-73
2022/08/12 05:19:21;;;;;;;11.60;4.10;;;;;;;20.03;65.29;101203.84;84634;1332;22966;-74
2022/08/12 05:21:30;;;;;;;9.40;4.20;;;;;;;20.13;64.91;101200.21;84613;1332;22663;-74
2022/08/12 05:23:41;;;;;;;6.00;3.40;;;;;;;20.20;64.55;101204.86;84652;1323;25018;-73
2022/08/12 05:25:55;;;;;;;8.20;3.30;;;;;;;20.24;64.28;101204.08;84611;1333;22988;-74
2022/08/12 05:28:04;;;;;;;5.20;2.80;;;;;;;20.26;64.00;101204.79;84620;1331;22599;-73
2022/08/12 05:30:15;;;;;;;4.20;2.60;;;;;;;20.30;63.76;101201.23;84606;1330;24242;-73
2022/08/12 05:32:27;;;;;;;6.60;2.30;;;;;;;20.32;63.60;101202.66;84601;1331;24249;-74
2022/08/12 05:34:36;;;;;;;8.60;2.80;;;;;;;20.38;63.89;101199.79;84571;1333;22632;-73
2022/08/12 05:36:45;;;;;;;9.50;2.60;;;;;;;20.49;63.79;101201.05;84563;1332;22570;-73
2022/08/12 05:38:57;;;;;;;9.20;2.90;;;;;;;20.79;64.39;101198.13;84586;1331;22606;-73
2022/08/12 05:41:17;;;;;;;3.80;2.70;;;;;;;21.19;63.84;101196.49;84572;1332;25359;-74
2022/08/12 05:43:27;;;;;;;8.30;3.00;;;;;;;22.07;64.86;101198.77;84562;1331;24130;-74
2022/08/12 05:45:35;;;;;;;;;;;;;;;23.27;63.85;101193.41;84567;1333;26563;-73
2022/08/12 05:47:44;;;;;;;9.90;2.60;;;;;;;24.55;60.04;101195.76;84612;1327;22600;-73
2022/08/12 05:49:53;;;;;;;6.20;2.20;;;;;;;25.64;56.59;101190.34;84558;1332;25440;-74
2022/08/12 05:52:02;;;;;;;6.50;2.30;;;;;;;26.66;53.80;101191.29;84590;1332;22593;-73
2022/08/12 05:54:11;;;;;;;5.30;2.10;;;;;;;27.62;51.40;101196.51;84660;1330;22613;-73
2022/08/12 05:56:26;;;;;;;10.80;3.20;;;;;;;28.29;47.99;101202.98;84613;1332;22751;-73
2022/08/12 05:58:35;;;;;;;6.20;2.20;;;;;;;28.66;47.00;101199.30;84614;1328;22610;-71
2022/08/12 06:00:43;;;;;;;6.00;2.60;;;;;;;29.30;44.95;101195.96;84615;1332;22644;-74
2022/08/12 06:02:59;;;;;;;3.80;1.90;;;;;;;29.83;44.02;101195.96;84617;1331;22838;-72
2022/08/12 06:05:11;;;;;;;9.60;2.30;;;;;;;30.57;42.67;101188.29;84610;1331;22625;-73
2022/08/12 06:07:21;;;;;;;2.30;2.00;;;;;;;31.39;40.46;101188.71;84635;1333;22610;-73
2022/08/12 06:09:30;;;;;;;13.10;2.50;;;;;;;32.03;39.38;101192.19;84612;1330;22679;-73
2022/08/12 06:11:41;;;;;;;9.90;2.30;;;;;;;32.48;37.82;101192.20;84613;1332;22788;-72
2022/08/12 06:13:50;;;;;;;10.80;2.40;;;;;;;32.93;36.69;101188.48;84618;1332;22759;-72
2022/08/12 06:15:59;;;;;;;6.50;2.00;;;;;;;33.21;35.77;101182.94;84578;1333;22604;-72
2022/08/12 06:18:10;;;;;;;5.40;2.00;;;;;;;33.05;35.37;101179.04;84584;1334;25349;-74
2022/08/12 06:20:21;;;;;;;5.00;2.10;;;;;;;32.95;35.68;101173.26;84574;1333;25454;-71
2022/08/12 06:22:33;;;;;;;8.40;1.90;;;;;;;33.15;35.22;101177.00;84596;1333;22584;-72
2022/08/12 06:24:43;;;;;;;3.00;1.90;;;;;;;33.54;34.53;101173.23;84562;1332;22877;-73
2022/08/12 06:26:52;;;;;;;2.20;1.40;;;;;;;33.35;34.36;101173.09;84610;1331;25330;-72
2022/08/12 06:29:02;;;;;;;4.10;1.60;;;;;;;33.54;34.19;101174.36;84591;1333;22619;-74
2022/08/12 06:31:14;;;;;;;4.50;1.70;;;;;;;34.07;33.64;101177.41;84639;1331;22831;-73
2022/08/12 06:33:23;;;;;;;7.80;2.00;;;;;;;34.12;32.30;101180.34;84573;1331;23984;-72
2022/08/12 06:35:30;;;;;;;;;;;;;;;33.71;32.26;101176.81;84596;1328;22569;-74
2022/08/12 06:37:44;;;;;;;3.50;2.00;;;;;;;33.07;33.15;101180.81;84575;1332;22641;-73
2022/08/12 06:39:53;;;;;;;5.80;2.20;;;;;;;32.24;33.53;101186.51;84566;1326;22613;-74
2022/08/12 06:44:28;;;;;;;9.30;2.10;;;;;;;31.85;35.79;101188.83;84581;1330;22608;-72
2022/08/12 06:46:38;;;;;;;;;;;;;;;32.71;35.59;101187.27;84590;1332;22593;-72
2022/08/12 06:48:47;;;;;;;3.30;2.80;;;;;;;33.63;34.16;101179.02;84576;1332;22590;-74
2022/08/12 06:50:56;;;;;;;5.20;2.10;;;;;;;34.22;33.12;101182.23;84586;1335;22593;-73
2022/08/12 06:53:05;;;;;;;3.80;1.40;;;;;;;34.49;32.52;101180.88;84599;1333;22765;-75
2022/08/12 06:55:19;;;;;;;2.90;1.80;;;;;;;35.05;31.32;101179.88;84624;1332;24366;-75
2022/08/12 06:57:28;;;;;;;3.90;1.90;;;;;;;35.47;30.81;101177.16;84653;1331;23203;-74
2022/08/12 06:59:39;;;;;;;;;;;;;;;35.90;29.73;101184.64;84694;1333;22576;-73
2022/08/12 07:01:57;;;;;;;7.30;1.80;;;;;;;36.24;29.75;101192.70;84690;1331;22597;-75
2022/08/12 07:04:14;;;;;;;3.10;2.00;;;;;;;36.60;28.94;101193.98;84727;1329;22839;-74
2022/08/12 07:06:33;;;;;;;5.90;2.00;;;;;;;36.86;28.45;101196.60;84727;1332;22661;-76
2022/08/12 07:08:44;;;;;;;4.60;1.70;;;;;;;36.99;28.34;101203.08;84589;1331;22576;-74
2022/08/12 07:10:58;;;;;;;2.10;1.90;;;;;;;37.08;27.82;101199.02;84617;1331;22851;-74
2022/08/12 07:13:07;;;;;;;3.10;2.30;;;;;;;37.05;27.87;101192.75;84638;1329;25477;-73
2022/08/12 07:15:18;;;;;;;4.20;1.90;;;;;;;36.98;27.98;101190.52;84560;1332;22634;-72
2022/08/12 07:17:35;;;;;;;4.30;1.90;;;;;;;36.99;27.92;101188.98;84587;1331;22586;-72
2022/08/12 07:19:45;;;;;;;5.60;2.10;;;;;;;37.08;28.05;101185.89;84577;1333;23977;-71
2022/08/12 07:21:54;;;;;;;5.40;2.20;;;;;;;37.31;27.70;101184.33;84563;1332;27329;-73
2022/08/12 07:24:03;;;;;;;4.80;2.00;;;;;;;37.59;27.58;101189.54;84579;1331;22601;-72
2022/08/12 07:26:16;;;;;;;5.40;2.10;;;;;;;37.91;26.96;101191.21;84574;1333;22590;-73
2022/08/12 07:28:28;;;;;;;5.80;2.20;;;;;;;38.16;26.49;101185.23;84609;1331;22621;-73
2022/08/12 07:30:40;;;;;;;9.00;3.60;;;;;;;38.22;26.59;101188.98;84553;1331;24277;-74
2022/08/12 07:32:50;;;;;;;6.00;3.20;;;;;;;38.20;25.94;101189.17;84581;1331;22699;-71
2022/08/12 07:34:59;;;;;;;6.30;2.80;;;;;;;37.88;26.31;101187.65;84598;1330;22673;-71
2022/08/12 07:37:08;;;;;;;4.80;2.50;;;;;;;37.51;26.91;101188.86;84570;1328;24070;-74
2022/08/12 07:39:17;;;;;;;10.40;3.90;;;;;;;37.53;26.40;101182.60;84664;1325;22636;-73
2022/08/12 07:41:30;;;;;;;8.50;4.30;;;;;;;37.48;26.70;101185.09;84673;1329;23271;-73
2022/08/12 07:43:41;;;;;;;7.50;4.10;;;;;;;37.53;26.81;101186.42;84618;1333;22619;-73
2022/08/12 07:45:50;;;;;;;5.20;3.50;;;;;;;37.94;26.92;101188.94;84606;1324;22666;-72
2022/08/12 07:47:59;;;;;;;9.70;2.80;;;;;;;38.34;26.80;101190.58;84598;1330;22893;-74
2022/08/12 07:50:12;;;;;;;8.80;3.90;;;;;;;38.70;26.58;101186.30;84654;1330;23920;-73
2022/08/12 07:52:21;;;;;;;7.00;2.80;;;;;;;38.79;25.62;101191.81;84582;1333;22659;-74
2022/08/12 07:54:32;;;;;;;5.00;2.40;;;;;;;38.89;25.06;101188.17;84566;1332;24284;-73
2022/08/12 07:56:42;;;;;;;5.40;2.70;;;;;;;39.01;24.68;101191.89;84625;1329;25269;-73
2022/08/12 07:58:57;;;;;;;30.00;5.80;;;;;;;39.08;24.92;101188.83;84588;1325;22610;-74
2022/08/12 08:01:09;;;;;;;4.80;2.90;;;;;;;39.20;24.57;101192.38;84553;1330;23206;-72
2022/08/12 08:03:18;;;;;;;3.50;2.20;;;;;;;39.19;24.72;101193.73;84561;1332;22696;-73
2022/08/12 08:05:30;;;;;;;5.20;2.10;;;;;;;39.11;24.52;101193.02;84615;1330;22694;-72
2022/08/12 08:07:42;;;;;;;4.80;2.50;;;;;;;38.69;24.64;101190.33;84560;1330;22586;-72
2022/08/12 08:09:52;;;;;;;3.70;2.40;;;;;;;38.08;25.12;101186.23;84559;1330;22610;-73
2022/08/12 08:14:31;;;;;;;2.70;1.80;;;;;;;36.66;26.96;101186.17;84592;1331;22598;-73
2022/08/12 08:16:40;;;;;;;6.10;2.20;;;;;;;36.24;27.38;101187.20;84553;1332;25003;-72
2022/08/12 08:18:52;;;;;;;3.50;2.20;;;;;;;35.96;27.73;101182.63;84601;1332;22647;-73
2022/08/12 08:21:01;;;;;;;2.20;2.00;;;;;;;35.60;28.22;101182.04;84642;1330;24390;-73
2022/08/12 08:23:13;;;;;;;6.00;2.30;;;;;;;35.59;28.54;101184.38;84613;1333;22858;-73
2022/08/12 08:25:29;;;;;;;4.00;2.20;;;;;;;35.48;28.08;101190.30;84563;1334;25501;-73
2022/08/12 08:27:47;;;;;;;8.80;3.30;;;;;;;35.14;29.19;101188.98;84622;1333;22798;-73
2022/08/12 08:29:56;;;;;;;11.80;4.90;;;;;;;34.66;29.01;101193.23;84599;1331;22796;-74
2022/08/12 08:32:06;;;;;;;10.00;5.90;;;;;;;34.07;29.56;101196.27;84594;1332;22698;-73
2022/08/12 08:34:16;;;;;;;11.00;7.00;;;;;;;33.68;30.31;101200.27;84592;1332;23986;-74
2022/08/12 08:36:24;;;;;;;30.00;8.40;;;;;;;33.40;31.23;101195.23;84558;1328;22665;-73
2022/08/12 08:38:33;;;;;;;39.50;6.90;;;;;;;33.38;31.57;101191.56;84601;1330;25316;-73
2022/08/12 08:43:09;;;;;;;6.80;2.10;;;;;;;33.04;31.28;101195.43;84673;1329;23977;-73
2022/08/12 08:45:18;;;;;;;2.20;1.50;;;;;;;32.85;30.81;101198.14;84558;1330;22739;-72
2022/08/12 08:47:25;;;;;;;;;;;;;;;32.45;31.21;101196.53;84590;1330;23053;-73
2022/08/12 08:49:35;;;;;;;5.90;2.10;;;;;;;32.01;31.88;101195.36;84545;1331;22606;-73
2022/08/12 08:51:43;;;;;;;;;;;;;;;31.76;32.98;101196.59;84631;1330;22998;-73
2022/08/12 08:53:53;;;;;;;14.80;3.30;;;;;;;31.40;33.87;101192.91;84651;1329;22625;-73
2022/08/12 08:56:02;;;;;;;9.80;3.80;;;;;;;31.18;34.83;101198.34;84561;1330;22583;-73
2022/08/12 08:58:12;;;;;;;11.80;4.20;;;;;;;30.90;34.85;101198.16;84575;1328;24348;-72
2022/08/12 09:00:21;;;;;;;7.80;3.30;;;;;;;30.59;35.01;101201.63;84554;1332;23969;-72
2022/08/12 09:02:30;;;;;;;4.60;3.30;;;;;;;30.36;35.74;101203.94;84542;1329;22648;-73
2022/08/12 09:04:40;;;;;;;9.00;3.40;;;;;;;30.17;36.08;101200.13;84549;1331;22633;-74
2022/08/12 09:06:49;;;;;;;7.30;2.90;;;;;;;30.05;36.42;101205.10;84554;1333;23040;-72
2022/08/12 09:08:58;;;;;;;2.70;1.90;;;;;;;29.95;36.15;101202.80;84655;1329;24215;-73
2022/08/12 09:13:50;;;;;;;20.60;5.50;;;;;;;29.94;37.32;101195.38;84433;1336;24281;-72
2022/08/12 09:15:58;;;;;;;27.00;5.20;;;;;;;30.11;36.96;101190.34;84452;1334;22861;-72
2022/08/12 09:18:10;;;;;;;16.40;3.90;;;;;;;30.05;37.03;101190.39;84437;1335;22606;-73
2022/08/12 09:20:20;;;;;;;9.40;3.30;;;;;;;29.92;37.30;101190.39;84435;1330;23164;-74
2022/08/12 09:22:29;;;;;;;6.20;3.90;;;;;;;29.80;37.55;101190.05;84425;1327;24235;-73
2022/08/12 09:24:40;;;;;;;7.30;3.00;;;;;;;29.68;37.68;101192.94;84436;1334;22623;-72
2022/08/12 09:26:51;;;;;;;6.40;3.10;;;;;;;29.39;37.73;101193.27;84567;1330;22590;-72
2022/08/12 09:29:00;;;;;;;6.80;2.90;;;;;;;29.21;38.44;101197.67;84568;1330;22602;-71
2022/08/12 09:31:10;;;;;;;10.50;3.30;;;;;;;29.07;38.39;101199.64;84634;1330;23933;-72
2022/08/12 09:33:21;;;;;;;10.30;3.80;;;;;;;28.92;38.76;101202.08;84663;1327;22845;-73
2022/08/12 09:35:32;;;;;;;18.30;4.00;;;;;;;28.78;39.12;101199.52;84561;1329;22602;-73
2022/08/12 09:37:41;;;;;;;10.50;2.90;;;;;;;28.79;40.14;101200.12;84561;1327;23094;-73
2022/08/12 09:39:52;;;;;;;5.10;3.00;;;;;;;28.87;40.17;101197.67;84554;1330;25419;-71
2022/08/12 09:46:56;;;;;;;7.00;3.60;;;;;;;28.53;40.29;101197.20;84555;1331;24294;-73
2022/08/12 09:49:05;;;;;;;10.30;5.40;;;;;;;28.45;40.79;101190.34;84602;1330;22603;-72
2022/08/12 09:51:15;;;;;;;31.90;6.10;;;;;;;28.41;41.15;101193.83;84545;1330;22621;-73
2022/08/12 09:53:25;;;;;;;8.00;3.30;;;;;;;28.39;41.77;101195.77;84586;1331;22577;-72
2022/08/12 09:55:38;;;;;;;3.10;2.60;;;;;;;28.35;41.71;101193.49;84571;1327;22698;-72
2022/08/12 09:57:50;;;;;;;4.10;2.60;;;;;;;28.25;42.14;101195.33;84688;1329;24273;-73
2022/08/12 10:00:01;;;;;;;3.40;2.70;;;;;;;28.39;42.42;101194.14;84587;1331;25338;-73
2022/08/12 10:02:11;;;;;;;6.60;3.00;;;;;;;28.45;42.33;101189.23;84669;1329;22599;-72
2022/08/12 10:04:20;;;;;;;2.30;2.10;;;;;;;28.39;42.41;101191.98;84645;1329;24123;-73
2022/08/12 10:06:28;;;;;;;;;;;;;;;28.22;42.63;101192.08;84563;1331;25325;-73
2022/08/12 10:08:37;;;;;;;4.20;2.70;;;;;;;27.99;43.05;101191.69;84628;1330;25352;-72
2022/08/12 10:15:43;;;;;;;4.40;3.30;;;;;;;27.42;44.59;101181.02;84619;1330;22606;-71
2022/08/12 10:17:53;;;;;;;3.80;2.90;;;;;;;27.39;44.98;101181.00;84569;1331;22591;-72
2022/08/12 10:20:02;;;;;;;3.90;3.30;;;;;;;27.42;45.07;101178.27;84529;1332;24845;-72
2022/08/12 10:22:13;;;;;;;4.40;3.20;;;;;;;27.43;45.34;101177.79;84536;1331;25431;-73
2022/08/12 10:24:23;;;;;;;7.30;3.50;;;;;;;27.41;45.48;101178.64;84559;1330;22653;-71
2022/08/12 10:31:37;;;;;;;3.90;3.20;;;;;;;27.73;46.17;101172.89;84420;1335;22621;-73
2022/08/12 10:33:45;;;;;;;5.10;2.80;;;;;;;27.96;46.13;101169.50;84542;1330;22698;-73
2022/08/12 10:36:16;;;;;;;4.80;2.70;;;;;;;28.19;45.79;101165.77;84561;1328;22743;-72
2022/08/12 10:38:25;;;;;;;3.80;3.10;;;;;;;28.25;45.19;101169.43;84580;1331;24014;-71
2022/08/12 10:43:39;;;;;;;3.70;3.20;;;;;;;28.28;45.40;101159.83;84545;1334;25392;-72
2022/08/12 10:45:41;;;;;;;5.90;3.00;;;;;;;28.57;44.94;101161.52;84398;1335;24247;-73
2022/08/12 10:47:51;;;;;;;5.00;3.70;;;;;;;28.60;45.13;101155.58;84579;1332;25463;-71
2022/08/12 10:50:00;;;;;;;3.20;2.90;;;;;;;28.66;45.07;101156.81;84571;1333;22632;-73
2022/08/12 10:52:10;;;;;;;3.70;3.30;;;;;;;28.70;45.08;101153.89;84588;1332;22766;-73
2022/08/12 10:54:20;;;;;;;3.40;3.10;;;;;;;28.76;44.89;101152.71;84582;1331;25501;-73
2022/08/12 10:56:30;;;;;;;5.20;3.10;;;;;;;28.78;44.81;101149.98;84550;1330;22693;-70
2022/08/12 10:58:39;;;;;;;5.10;3.40;;;;;;;28.92;45.40;101144.55;84601;1329;22671;-72
2022/08/12 11:00:49;;;;;;;3.50;3.00;;;;;;;29.10;45.07;101147.20;84560;1333;22592;-73
2022/08/12 11:03:00;;;;;;;4.80;3.70;;;;;;;29.16;44.90;101147.52;84583;1327;22613;-73
2022/08/12 11:05:14;;;;;;;5.60;3.60;;;;;;;29.12;44.46;101147.88;84564;1331;22602;-71
2022/08/12 11:07:25;;;;;;;5.50;3.20;;;;;;;28.98;44.51;101146.28;84582;1331;22621;-73
2022/08/12 11:09:36;;;;;;;5.60;3.10;;;;;;;28.88;44.45;101146.29;84549;1333;22697;-71
2022/08/12 11:11:47;;;;;;;5.90;3.40;;;;;;;28.75;44.62;101149.01;84545;1332;24311;-71
2022/08/12 11:13:57;;;;;;;5.80;3.60;;;;;;;28.56;44.91;101146.98;84596;1332;25542;-73
2022/08/12 11:16:09;;;;;;;9.20;3.60;;;;;;;28.35;45.12;101149.48;84556;1332;22623;-72
2022/08/12 11:18:18;;;;;;;5.40;3.40;;;;;;;28.19;45.36;101152.31;84615;1327;22607;-72
2022/08/12 11:20:29;;;;;;;5.10;4.00;;;;;;;28.13;46.16;101151.38;84564;1331;22612;-72
2022/08/12 11:22:38;;;;;;;7.90;3.30;;;;;;;28.05;46.14;101146.99;84566;1331;24007;-72
2022/08/12 11:24:47;;;;;;;5.70;3.40;;;;;;;27.89;46.70;101145.45;84653;1329;22593;-72
2022/08/12 11:26:56;;;;;;;3.80;3.50;;;;;;;27.74;47.17;101145.20;84672;1330;22659;-72
2022/08/12 11:29:05;;;;;;;4.70;3.50;;;;;;;27.60;47.22;101146.36;84616;1333;22611;-71
2022/08/12 11:31:14;;;;;;;6.80;3.80;;;;;;;27.49;47.30;101144.49;84586;1332;24206;-71
2022/08/12 11:33:24;;;;;;;7.30;4.10;;;;;;;27.37;47.73;101146.80;84640;1331;25444;-72
2022/08/12 11:35:33;;;;;;;4.30;3.40;;;;;;;27.24;48.13;101142.83;84570;1331;22620;-73
2022/08/12 11:37:41;;;;;;;4.80;3.50;;;;;;;27.18;48.62;101144.46;84584;1331;22603;-73
2022/08/12 11:39:50;;;;;;;4.40;3.90;;;;;;;27.11;48.64;101142.61;84559;1330;22688;-73
2022/08/12 11:41:59;;;;;;;6.10;4.00;;;;;;;27.01;48.82;101141.43;84637;1330;22724;-72
2022/08/12 11:44:08;;;;;;;4.60;3.40;;;;;;;26.94;49.07;101141.57;84643;1330;23971;-72
2022/08/12 11:46:19;;;;;;;7.30;3.80;;;;;;;26.95;49.21;101139.53;84521;1333;22599;-73
2022/08/12 11:48:28;;;;;;;3.80;3.50;;;;;;;27.03;49.52;101136.45;84649;1329;24281;-74
2022/08/12 11:50:37;;;;;;;4.10;3.70;;;;;;;27.12;49.66;101135.77;84622;1329;22604;-73
2022/08/12 11:52:47;;;;;;;5.90;3.50;;;;;;;27.12;49.72;101135.88;84579;1333;25430;-71
2022/08/12 11:54:57;;;;;;;4.20;3.80;;;;;;;27.15;49.48;101139.92;84625;1330;22748;-74
2022/08/12 11:57:06;;;;;;;6.90;4.20;;;;;;;27.17;49.53;101136.55;84545;1333;25526;-72